Terminal Aerodrome Forecast
Issued by NWS Paducah, KY

Home | Current Version | Previous Version | Graphics & Text | Print | Product List | Glossary On
Versions: 1 2 3 4 5 6 7 8 9 10 11 12 13 14 15 16 17 18 19 20 21 22
000
FTUS43 KPAH 050104 AAB
TAFPAH
TAF AMD
KPAH 050104Z 0501/0524 01013G19KT 1/2SM SN VV006
     FM050700 01014G21KT 2SM -SN BR OVC010
     FM050900 02012KT 3SM -SN BR OVC010
     FM051200 01010KT 6SM BR OVC010=

USA.gov is the U.S. government's official web portal to all federal, state and local government web resources and services.